createdAt,value
2023-03-23T00:00:48.605Z,67.84
2023-03-23T00:07:08.612Z,67.06
2023-03-23T00:13:31.565Z,66.74
2023-03-23T00:19:51.628Z,67.04
2023-03-23T00:26:14.640Z,67.09
2023-03-23T00:32:34.628Z,67.11
2023-03-23T00:38:57.604Z,67.48
2023-03-23T00:45:17.611Z,67.76
2023-03-23T00:51:40.583Z,67.66
2023-03-23T00:58:00.608Z,67.74
2023-03-23T01:04:23.580Z,67.51
2023-03-23T01:10:43.608Z,68.81
2023-03-23T01:17:06.614Z,69.26
2023-03-23T01:23:26.605Z,69.51
2023-03-23T01:29:49.568Z,69.56
2023-03-23T01:36:09.580Z,70.21
2023-03-23T01:42:32.596Z,71.3
2023-03-23T01:48:52.584Z,71.5
2023-03-23T01:55:15.630Z,72.18
2023-03-23T02:01:35.605Z,72.86
2023-03-23T02:07:58.573Z,73.87
2023-03-23T02:14:18.609Z,73.62
2023-03-23T02:20:41.583Z,73.86
2023-03-23T02:27:01.621Z,72.58
2023-03-23T02:33:24.628Z,72.46
2023-03-23T02:39:44.636Z,72.24
2023-03-23T02:46:07.577Z,72.74
2023-03-23T02:52:27.597Z,72.75
2023-03-23T02:58:50.590Z,73.51
2023-03-23T03:05:10.575Z,74.36
2023-03-23T03:11:33.604Z,75.07
2023-03-23T03:17:53.582Z,75.49
2023-03-23T03:24:16.658Z,75.51
2023-03-23T03:30:36.618Z,75.39
2023-03-23T03:36:59.567Z,75.31
2023-03-23T03:43:19.574Z,75.56
2023-03-23T03:49:42.636Z,75.47
2023-03-23T03:56:02.592Z,75.51
2023-03-23T04:02:25.594Z,75.64
2023-03-23T04:08:45.650Z,75.51
2023-03-23T04:15:08.615Z,75.43
2023-03-23T04:21:28.628Z,75.33
2023-03-23T04:44:16.596Z,75.38
2023-03-23T04:50:39.558Z,75.46
2023-03-23T04:56:59.621Z,75.79
2023-03-23T05:03:22.609Z,75.9
2023-03-23T05:09:42.616Z,75.95
2023-03-23T05:16:05.602Z,76.05
2023-03-23T05:22:25.622Z,75.99
2023-03-23T05:28:48.623Z,75.99
2023-03-23T05:35:08.561Z,75.96
2023-03-23T05:41:31.621Z,75.77
2023-03-23T05:47:51.567Z,75.49
2023-03-23T05:54:14.579Z,75.17
2023-03-23T06:00:34.626Z,74.79
2023-03-23T06:06:57.594Z,74.61
2023-03-23T06:13:17.591Z,72.69
2023-03-23T06:19:40.605Z,72.12
2023-03-23T06:26:04.139Z,71.96
2023-03-23T06:32:23.622Z,71.87
2023-03-23T06:38:43.600Z,71.16
2023-03-23T06:45:06.636Z,70.59
2023-03-23T06:51:26.594Z,70.31
2023-03-23T06:57:49.588Z,70.32
2023-03-23T07:04:09.609Z,70.15
2023-03-23T07:10:32.578Z,70.14
2023-03-23T07:16:52.640Z,70.03
2023-03-23T07:23:15.576Z,69.95
2023-03-23T07:29:35.641Z,69.21
2023-03-23T07:35:58.681Z,68.81
2023-03-23T07:42:18.576Z,68.59
2023-03-23T07:48:41.621Z,67.87
2023-03-23T07:55:01.686Z,67.13
2023-03-23T08:01:24.588Z,66.39
2023-03-23T08:07:44.593Z,65.4
2023-03-23T08:14:07.597Z,64.4
2023-03-23T08:20:27.636Z,63.01
2023-03-23T08:26:50.566Z,63.09
2023-03-23T08:33:10.585Z,62.45
2023-03-23T08:39:33.621Z,62.54
2023-03-23T08:45:53.559Z,62.1
2023-03-23T08:52:16.624Z,61.82
2023-03-23T08:58:36.565Z,61.5
2023-03-23T09:04:59.588Z,61.28
2023-03-23T09:11:19.584Z,60.9
2023-03-23T09:17:42.556Z,61.03
2023-03-23T09:24:02.575Z,61.11
2023-03-23T09:30:25.626Z,60.91
2023-03-23T09:36:45.597Z,61.21
2023-03-23T09:43:08.568Z,60.68
2023-03-23T09:49:28.593Z,60.44
2023-03-23T10:05:56.605Z,61.91
2023-03-23T10:12:16.851Z,62.58
2023-03-23T10:18:40.592Z,62.4
2023-03-23T10:25:00.669Z,61.81
2023-03-23T10:31:23.566Z,61.72
2023-03-23T10:37:43.626Z,62.19
2023-03-23T10:44:06.698Z,62.44
2023-03-23T10:50:26.589Z,62.92
2023-03-23T10:56:58.904Z,63.12
2023-03-23T11:03:09.618Z,62.4
2023-03-23T11:09:32.653Z,62.75
2023-03-23T11:15:52.578Z,64.11
2023-03-23T11:22:15.625Z,64.6
2023-03-23T11:28:35.602Z,64.49
2023-03-23T11:35:04.158Z,63.75
2023-03-23T11:41:18.612Z,63.16
2023-03-23T11:47:41.587Z,61.01
2023-03-23T11:54:01.583Z,59.36
2023-03-23T12:00:24.627Z,57.88
2023-03-23T12:06:44.852Z,57.81
2023-03-23T12:13:07.611Z,59.71
2023-03-23T12:19:27.615Z,58.36
2023-03-23T12:25:50.607Z,57.9
2023-03-23T12:32:10.573Z,57.81
2023-03-23T12:38:33.588Z,58.46
2023-03-23T12:44:53.614Z,58.28
2023-03-23T12:51:16.579Z,57.12
2023-03-23T12:57:36.620Z,58.19
2023-03-23T13:03:59.572Z,58.26
2023-03-23T13:10:19.601Z,58.94
2023-03-23T13:16:42.609Z,59.23
2023-03-23T13:23:02.592Z,59.41
2023-03-23T13:29:25.619Z,59.26
2023-03-23T13:35:45.726Z,58.78
2023-03-23T13:42:08.588Z,58.84
2023-03-23T13:48:28.621Z,58.85
2023-03-23T13:54:51.643Z,58.2
2023-03-23T14:01:11.604Z,58.73
2023-03-23T14:07:34.596Z,58.46
2023-03-23T14:13:54.640Z,58.32
2023-03-23T14:20:17.872Z,57.99
2023-03-23T14:26:37.587Z,58.03
2023-03-23T14:33:00.625Z,58.66
2023-03-23T14:39:20.589Z,59.28
2023-03-23T14:45:43.730Z,59.24
2023-03-23T14:52:03.596Z,59.21
2023-03-23T14:58:26.553Z,59.65
2023-03-23T15:04:47.767Z,60.35
2023-03-23T15:11:10.615Z,60.45
2023-03-23T15:34:51.601Z,56.62
2023-03-23T15:41:11.591Z,57.65
2023-03-23T15:47:34.609Z,57.72
2023-03-23T15:53:55.175Z,55.86
2023-03-23T16:00:17.593Z,56.9
2023-03-23T16:06:37.586Z,56.23
2023-03-23T16:13:00.626Z,55.3
2023-03-23T16:19:20.774Z,55.33
2023-03-23T16:25:43.752Z,55.58
2023-03-23T16:32:03.890Z,56.26
2023-03-23T16:38:26.591Z,56.86
2023-03-23T16:44:46.594Z,56.85
2023-03-23T16:51:09.617Z,57.36
2023-03-23T16:57:29.584Z,56.96
2023-03-23T17:03:52.720Z,56.98
2023-03-23T17:10:12.651Z,56.93
2023-03-23T17:16:35.613Z,57.07
2023-03-23T17:22:55.628Z,57.72
2023-03-23T17:29:18.593Z,57.87
2023-03-23T17:35:38.630Z,58.22
2023-03-23T17:42:01.635Z,58.77
2023-03-23T17:48:21.593Z,59.15
2023-03-23T17:54:44.582Z,59.42
2023-03-23T18:01:04.619Z,59.77
2023-03-23T18:07:27.867Z,60.3
2023-03-23T18:13:47.570Z,60.35
2023-03-23T18:20:10.591Z,60.75
2023-03-23T18:26:30.654Z,61.05
2023-03-23T18:32:53.595Z,61.34
2023-03-23T18:39:13.586Z,61.55
2023-03-23T18:45:36.595Z,61.81
2023-03-23T18:51:56.606Z,62.14
2023-03-23T18:58:19.614Z,62.39
2023-03-23T19:04:39.575Z,62.53
2023-03-23T19:11:02.604Z,62.83
2023-03-23T19:17:22.610Z,63.11
2023-03-23T19:23:45.615Z,63.21
2023-03-23T19:30:05.592Z,63.57
2023-03-23T19:36:28.610Z,63.59
2023-03-23T19:42:48.629Z,63.62
2023-03-23T19:49:11.576Z,63.78
2023-03-23T19:55:31.616Z,63.96
2023-03-23T20:01:54.745Z,64.16
2023-03-23T20:08:14.838Z,64.32
2023-03-23T20:14:37.713Z,64.67
2023-03-23T20:20:58.126Z,64.68
2023-03-23T20:27:20.577Z,64.9
2023-03-23T20:33:40.573Z,65.15
2023-03-23T20:51:09.504Z,66.08
2023-03-23T20:57:29.610Z,66.5
2023-03-23T21:03:52.581Z,66.74
2023-03-23T21:10:12.680Z,66.96
2023-03-23T21:16:35.565Z,67.79
2023-03-23T21:22:55.581Z,67.88
2023-03-23T21:29:18.585Z,67.91
2023-03-23T21:35:38.620Z,68
2023-03-23T21:42:01.553Z,67.48
2023-03-23T21:48:21.598Z,67.01
2023-03-23T21:54:44.576Z,66.71
2023-03-23T22:01:04.856Z,66.45
2023-03-23T22:07:28.756Z,66.51
2023-03-23T22:13:47.573Z,66.63
2023-03-23T22:20:10.563Z,66.72
2023-03-23T22:26:30.612Z,67.19
2023-03-23T22:32:53.613Z,67.21
2023-03-23T22:39:13.563Z,67.32
2023-03-23T22:45:36.705Z,67.5
2023-03-23T22:51:56.571Z,67.9
2023-03-23T22:58:19.586Z,68.24
2023-03-23T23:21:16.592Z,68.7
2023-03-23T23:27:36.621Z,68.58
2023-03-23T23:33:59.565Z,68.85
2023-03-23T23:40:19.606Z,68.85
2023-03-23T23:46:42.593Z,69.05
2023-03-23T23:53:02.627Z,68.96
2023-03-23T23:59:25.641Z,69.03
